sensor_id;sensor_type;location;lat;lon;timestamp;P1;durP1;ratioP1;P2;durP2;ratioP2
55288;SDS011;41154;45.394;5.734;2024-03-08T00:01:35;17.65;;;9.13;;
55288;SDS011;41154;45.394;5.734;2024-03-08T00:04:01;25.17;;;11.10;;
55288;SDS011;41154;45.394;5.734;2024-03-08T00:06:27;25.13;;;10.27;;
55288;SDS011;41154;45.394;5.734;2024-03-08T00:08:52;26.42;;;10.85;;
55288;SDS011;41154;45.394;5.734;2024-03-08T00:11:18;21.05;;;10.93;;
55288;SDS011;41154;45.394;5.734;2024-03-08T00:13:44;26.73;;;12.13;;
55288;SDS011;41154;45.394;5.734;2024-03-08T00:16:10;24.50;;;12.02;;
55288;SDS011;41154;45.394;5.734;2024-03-08T00:18:36;26.67;;;11.95;;
55288;SDS011;41154;45.394;5.734;2024-03-08T00:21:01;27.08;;;11.73;;
55288;SDS011;41154;45.394;5.734;2024-03-08T00:23:27;23.35;;;11.65;;
55288;SDS011;41154;45.394;5.734;2024-03-08T00:25:53;25.08;;;12.35;;
55288;SDS011;41154;45.394;5.734;2024-03-08T00:28:21;30.25;;;12.05;;
55288;SDS011;41154;45.394;5.734;2024-03-08T00:38:35;24.90;;;11.77;;
55288;SDS011;41154;45.394;5.734;2024-03-08T00:41:01;25.55;;;11.30;;
55288;SDS011;41154;45.394;5.734;2024-03-08T00:43:27;25.55;;;12.05;;
55288;SDS011;41154;45.394;5.734;2024-03-08T00:45:53;24.25;;;10.68;;
55288;SDS011;41154;45.394;5.734;2024-03-08T00:48:18;21.77;;;10.77;;
55288;SDS011;41154;45.394;5.734;2024-03-08T00:50:44;24.35;;;10.43;;
55288;SDS011;41154;45.394;5.734;2024-03-08T00:53:11;21.27;;;10.20;;
55288;SDS011;41154;45.394;5.734;2024-03-08T00:55:37;22.95;;;9.63;;
55288;SDS011;41154;45.394;5.734;2024-03-08T00:58:04;18.10;;;8.77;;
55288;SDS011;41154;45.394;5.734;2024-03-08T01:00:30;20.90;;;8.43;;
55288;SDS011;41154;45.394;5.734;2024-03-08T01:02:56;17.05;;;7.57;;
55288;SDS011;41154;45.394;5.734;2024-03-08T01:05:22;10.02;;;5.28;;
55288;SDS011;41154;45.394;5.734;2024-03-08T01:07:49;13.05;;;5.90;;
55288;SDS011;41154;45.394;5.734;2024-03-08T01:10:15;12.40;;;5.30;;
55288;SDS011;41154;45.394;5.734;2024-03-08T01:12:41;9.88;;;5.28;;
55288;SDS011;41154;45.394;5.734;2024-03-08T01:15:10;9.68;;;5.15;;
55288;SDS011;41154;45.394;5.734;2024-03-08T01:17:36;11.07;;;4.93;;
55288;SDS011;41154;45.394;5.734;2024-03-08T01:20:03;9.77;;;5.45;;
55288;SDS011;41154;45.394;5.734;2024-03-08T01:22:30;8.35;;;4.68;;
55288;SDS011;41154;45.394;5.734;2024-03-08T01:24:56;8.95;;;4.32;;
55288;SDS011;41154;45.394;5.734;2024-03-08T01:27:23;7.15;;;4.40;;
55288;SDS011;41154;45.394;5.734;2024-03-08T01:29:50;9.73;;;5.20;;
55288;SDS011;41154;45.394;5.734;2024-03-08T01:32:16;9.60;;;4.75;;
55288;SDS011;41154;45.394;5.734;2024-03-08T01:34:42;10.05;;;5.00;;
55288;SDS011;41154;45.394;5.734;2024-03-08T01:37:09;11.23;;;5.47;;
55288;SDS011;41154;45.394;5.734;2024-03-08T01:39:35;10.23;;;5.00;;
55288;SDS011;41154;45.394;5.734;2024-03-08T01:42:01;9.90;;;4.93;;
55288;SDS011;41154;45.394;5.734;2024-03-08T01:44:26;9.38;;;5.43;;
55288;SDS011;41154;45.394;5.734;2024-03-08T01:46:56;11.85;;;5.50;;
55288;SDS011;41154;45.394;5.734;2024-03-08T01:49:22;9.13;;;4.88;;
55288;SDS011;41154;45.394;5.734;2024-03-08T01:51:51;9.45;;;4.53;;
55288;SDS011;41154;45.394;5.734;2024-03-08T01:54:18;10.13;;;4.88;;
55288;SDS011;41154;45.394;5.734;2024-03-08T01:56:45;8.32;;;4.70;;
55288;SDS011;41154;45.394;5.734;2024-03-08T01:59:11;7.43;;;4.22;;
55288;SDS011;41154;45.394;5.734;2024-03-08T02:01:39;9.90;;;5.22;;
55288;SDS011;41154;45.394;5.734;2024-03-08T02:04:06;9.52;;;3.90;;
55288;SDS011;41154;45.394;5.734;2024-03-08T02:06:32;9.35;;;4.20;;
55288;SDS011;41154;45.394;5.734;2024-03-08T02:08:58;7.25;;;4.35;;
55288;SDS011;41154;45.394;5.734;2024-03-08T02:11:24;8.50;;;4.10;;
55288;SDS011;41154;45.394;5.734;2024-03-08T02:13:51;6.60;;;3.70;;
55288;SDS011;41154;45.394;5.734;2024-03-08T02:16:23;5.75;;;3.55;;
55288;SDS011;41154;45.394;5.734;2024-03-08T02:18:49;7.18;;;3.60;;
55288;SDS011;41154;45.394;5.734;2024-03-08T02:21:16;5.28;;;3.05;;
55288;SDS011;41154;45.394;5.734;2024-03-08T02:23:46;10.13;;;3.47;;
55288;SDS011;41154;45.394;5.734;2024-03-08T02:26:12;4.47;;;2.70;;
55288;SDS011;41154;45.394;5.734;2024-03-08T02:28:38;6.53;;;3.58;;
55288;SDS011;41154;45.394;5.734;2024-03-08T02:31:04;9.98;;;3.40;;
55288;SDS011;41154;45.394;5.734;2024-03-08T02:33:33;6.30;;;4.05;;
55288;SDS011;41154;45.394;5.734;2024-03-08T02:35:59;7.78;;;3.95;;
55288;SDS011;41154;45.394;5.734;2024-03-08T02:38:25;10.25;;;4.10;;
55288;SDS011;41154;45.394;5.734;2024-03-08T02:40:52;8.60;;;4.25;;
55288;SDS011;41154;45.394;5.734;2024-03-08T02:43:19;9.10;;;3.17;;
55288;SDS011;41154;45.394;5.734;2024-03-08T02:45:47;6.50;;;3.63;;
55288;SDS011;41154;45.394;5.734;2024-03-08T02:48:14;9.82;;;3.55;;
55288;SDS011;41154;45.394;5.734;2024-03-08T02:50:41;4.30;;;3.20;;
55288;SDS011;41154;45.394;5.734;2024-03-08T02:53:10;8.30;;;3.78;;
55288;SDS011;41154;45.394;5.734;2024-03-08T02:55:40;7.95;;;3.63;;
55288;SDS011;41154;45.394;5.734;2024-03-08T02:58:07;7.72;;;3.40;;
55288;SDS011;41154;45.394;5.734;2024-03-08T03:00:37;10.65;;;3.92;;
55288;SDS011;41154;45.394;5.734;2024-03-08T03:03:06;9.25;;;4.10;;
55288;SDS011;41154;45.394;5.734;2024-03-08T03:05:32;6.80;;;4.15;;
55288;SDS011;41154;45.394;5.734;2024-03-08T03:08:00;5.63;;;3.38;;
55288;SDS011;41154;45.394;5.734;2024-03-08T03:10:26;6.95;;;3.92;;
55288;SDS011;41154;45.394;5.734;2024-03-08T03:12:52;12.95;;;4.45;;
55288;SDS011;41154;45.394;5.734;2024-03-08T03:15:18;6.47;;;3.97;;
55288;SDS011;41154;45.394;5.734;2024-03-08T03:17:47;10.02;;;5.35;;
55288;SDS011;41154;45.394;5.734;2024-03-08T03:20:16;9.30;;;4.30;;
55288;SDS011;41154;45.394;5.734;2024-03-08T03:22:49;8.63;;;4.47;;
55288;SDS011;41154;45.394;5.734;2024-03-08T03:25:18;11.48;;;4.38;;
55288;SDS011;41154;45.394;5.734;2024-03-08T03:27:54;7.97;;;4.10;;
55288;SDS011;41154;45.394;5.734;2024-03-08T03:30:23;9.75;;;4.45;;
55288;SDS011;41154;45.394;5.734;2024-03-08T03:32:51;8.70;;;4.15;;
55288;SDS011;41154;45.394;5.734;2024-03-08T03:35:18;10.15;;;4.30;;
55288;SDS011;41154;45.394;5.734;2024-03-08T03:37:46;10.80;;;5.75;;
55288;SDS011;41154;45.394;5.734;2024-03-08T03:40:32;12.05;;;4.90;;
55288;SDS011;41154;45.394;5.734;2024-03-08T03:43:06;14.30;;;4.97;;
55288;SDS011;41154;45.394;5.734;2024-03-08T03:45:32;7.63;;;4.22;;
55288;SDS011;41154;45.394;5.734;2024-03-08T03:48:02;10.02;;;5.35;;
55288;SDS011;41154;45.394;5.734;2024-03-08T03:50:28;8.63;;;5.43;;
55288;SDS011;41154;45.394;5.734;2024-03-08T03:52:54;16.20;;;6.50;;
55288;SDS011;41154;45.394;5.734;2024-03-08T03:55:20;17.45;;;7.93;;
55288;SDS011;41154;45.394;5.734;2024-03-08T03:57:47;13.82;;;6.90;;
55288;SDS011;41154;45.394;5.734;2024-03-08T04:00:13;17.20;;;7.00;;
55288;SDS011;41154;45.394;5.734;2024-03-08T04:02:39;10.68;;;6.80;;
55288;SDS011;41154;45.394;5.734;2024-03-08T04:05:09;10.85;;;6.68;;
55288;SDS011;41154;45.394;5.734;2024-03-08T04:07:36;13.70;;;6.78;;
55288;SDS011;41154;45.394;5.734;2024-03-08T04:10:03;10.30;;;6.45;;
55288;SDS011;41154;45.394;5.734;2024-03-08T04:12:34;12.05;;;6.95;;
55288;SDS011;41154;45.394;5.734;2024-03-08T04:15:00;10.38;;;5.85;;
55288;SDS011;41154;45.394;5.734;2024-03-08T04:17:26;12.15;;;6.32;;
55288;SDS011;41154;45.394;5.734;2024-03-08T04:19:52;12.43;;;6.65;;
55288;SDS011;41154;45.394;5.734;2024-03-08T04:22:18;14.75;;;5.47;;
55288;SDS011;41154;45.394;5.734;2024-03-08T04:24:44;10.70;;;5.05;;
55288;SDS011;41154;45.394;5.734;2024-03-08T04:27:11;13.05;;;5.30;;
55288;SDS011;41154;45.394;5.734;2024-03-08T04:29:37;9.20;;;5.47;;
55288;SDS011;41154;45.394;5.734;2024-03-08T04:32:03;13.82;;;5.32;;
55288;SDS011;41154;45.394;5.734;2024-03-08T04:34:32;12.13;;;5.32;;
55288;SDS011;41154;45.394;5.734;2024-03-08T04:36:57;11.52;;;5.78;;
55288;SDS011;41154;45.394;5.734;2024-03-08T04:39:23;11.85;;;5.45;;
55288;SDS011;41154;45.394;5.734;2024-03-08T04:41:50;12.15;;;5.93;;
55288;SDS011;41154;45.394;5.734;2024-03-08T04:44:16;18.80;;;7.60;;
55288;SDS011;41154;45.394;5.734;2024-03-08T04:46:42;14.80;;;8.00;;
55288;SDS011;41154;45.394;5.734;2024-03-08T04:49:09;13.23;;;7.88;;
55288;SDS011;41154;45.394;5.734;2024-03-08T04:51:37;18.13;;;8.20;;
55288;SDS011;41154;45.394;5.734;2024-03-08T04:54:02;15.75;;;7.75;;
55288;SDS011;41154;45.394;5.734;2024-03-08T04:56:30;15.45;;;7.63;;
55288;SDS011;41154;45.394;5.734;2024-03-08T04:58:56;14.98;;;7.35;;
55288;SDS011;41154;45.394;5.734;2024-03-08T05:01:21;16.30;;;7.75;;
55288;SDS011;41154;45.394;5.734;2024-03-08T05:03:47;18.60;;;8.35;;
55288;SDS011;41154;45.394;5.734;2024-03-08T05:06:18;16.83;;;7.97;;
55288;SDS011;41154;45.394;5.734;2024-03-08T05:08:45;19.05;;;7.45;;
55288;SDS011;41154;45.394;5.734;2024-03-08T05:11:11;16.42;;;7.95;;
55288;SDS011;41154;45.394;5.734;2024-03-08T05:13:40;14.48;;;7.32;;
55288;SDS011;41154;45.394;5.734;2024-03-08T05:16:06;14.68;;;7.38;;
55288;SDS011;41154;45.394;5.734;2024-03-08T05:18:33;13.07;;;6.65;;
55288;SDS011;41154;45.394;5.734;2024-03-08T05:20:59;12.80;;;6.07;;
55288;SDS011;41154;45.394;5.734;2024-03-08T05:23:25;9.20;;;5.28;;
55288;SDS011;41154;45.394;5.734;2024-03-08T05:25:50;8.85;;;4.95;;
55288;SDS011;41154;45.394;5.734;2024-03-08T05:28:16;12.07;;;6.47;;
55288;SDS011;41154;45.394;5.734;2024-03-08T05:30:42;14.23;;;7.30;;
55288;SDS011;41154;45.394;5.734;2024-03-08T05:33:08;14.23;;;6.32;;
55288;SDS011;41154;45.394;5.734;2024-03-08T05:35:39;12.30;;;6.50;;
55288;SDS011;41154;45.394;5.734;2024-03-08T05:38:05;15.57;;;6.88;;
55288;SDS011;41154;45.394;5.734;2024-03-08T05:40:32;11.88;;;5.97;;
55288;SDS011;41154;45.394;5.734;2024-03-08T05:42:58;11.55;;;6.07;;
55288;SDS011;41154;45.394;5.734;2024-03-08T05:45:25;11.00;;;6.18;;
55288;SDS011;41154;45.394;5.734;2024-03-08T05:47:51;12.20;;;6.07;;
55288;SDS011;41154;45.394;5.734;2024-03-08T05:50:17;12.38;;;6.10;;
55288;SDS011;41154;45.394;5.734;2024-03-08T05:52:43;12.50;;;6.63;;
55288;SDS011;41154;45.394;5.734;2024-03-08T05:55:09;11.57;;;5.95;;
55288;SDS011;41154;45.394;5.734;2024-03-08T05:57:35;12.98;;;7.22;;
55288;SDS011;41154;45.394;5.734;2024-03-08T06:00:05;15.35;;;6.78;;
55288;SDS011;41154;45.394;5.734;2024-03-08T06:02:38;22.95;;;8.07;;
55288;SDS011;41154;45.394;5.734;2024-03-08T06:05:09;16.60;;;7.55;;
55288;SDS011;41154;45.394;5.734;2024-03-08T06:07:36;13.43;;;6.30;;
55288;SDS011;41154;45.394;5.734;2024-03-08T06:10:05;12.68;;;6.63;;
55288;SDS011;41154;45.394;5.734;2024-03-08T06:12:36;14.10;;;7.57;;
55288;SDS011;41154;45.394;5.734;2024-03-08T06:15:07;15.75;;;7.35;;
55288;SDS011;41154;45.394;5.734;2024-03-08T06:17:34;13.45;;;6.93;;
55288;SDS011;41154;45.394;5.734;2024-03-08T06:20:01;17.83;;;7.35;;
55288;SDS011;41154;45.394;5.734;2024-03-08T06:22:27;14.63;;;6.80;;
55288;SDS011;41154;45.394;5.734;2024-03-08T06:24:53;17.77;;;9.00;;
55288;SDS011;41154;45.394;5.734;2024-03-08T06:27:19;23.40;;;10.57;;
55288;SDS011;41154;45.394;5.734;2024-03-08T06:29:45;27.15;;;12.25;;
55288;SDS011;41154;45.394;5.734;2024-03-08T06:32:11;28.67;;;11.27;;
55288;SDS011;41154;45.394;5.734;2024-03-08T06:34:36;21.15;;;9.90;;
55288;SDS011;41154;45.394;5.734;2024-03-08T06:37:02;22.52;;;9.02;;
55288;SDS011;41154;45.394;5.734;2024-03-08T06:39:28;20.45;;;10.77;;
55288;SDS011;41154;45.394;5.734;2024-03-08T06:41:57;21.23;;;9.73;;
55288;SDS011;41154;45.394;5.734;2024-03-08T06:44:23;18.52;;;9.85;;
55288;SDS011;41154;45.394;5.734;2024-03-08T06:46:50;23.88;;;10.75;;
55288;SDS011;41154;45.394;5.734;2024-03-08T06:49:16;24.73;;;9.02;;
55288;SDS011;41154;45.394;5.734;2024-03-08T06:51:42;23.85;;;10.13;;
55288;SDS011;41154;45.394;5.734;2024-03-08T06:54:08;22.95;;;9.57;;
55288;SDS011;41154;45.394;5.734;2024-03-08T06:56:37;24.63;;;12.25;;
55288;SDS011;41154;45.394;5.734;2024-03-08T06:59:03;28.75;;;11.27;;
55288;SDS011;41154;45.394;5.734;2024-03-08T07:01:29;21.90;;;11.40;;
55288;SDS011;41154;45.394;5.734;2024-03-08T07:03:59;22.80;;;10.90;;
55288;SDS011;41154;45.394;5.734;2024-03-08T07:06:27;23.35;;;10.77;;
55288;SDS011;41154;45.394;5.734;2024-03-08T07:08:54;20.90;;;10.25;;
55288;SDS011;41154;45.394;5.734;2024-03-08T07:11:19;19.98;;;10.77;;
55288;SDS011;41154;45.394;5.734;2024-03-08T07:13:45;21.60;;;10.63;;
55288;SDS011;41154;45.394;5.734;2024-03-08T07:16:11;21.27;;;10.48;;
55288;SDS011;41154;45.394;5.734;2024-03-08T07:18:37;20.13;;;11.23;;
55288;SDS011;41154;45.394;5.734;2024-03-08T07:21:08;20.50;;;10.80;;
55288;SDS011;41154;45.394;5.734;2024-03-08T07:23:35;21.85;;;11.43;;
55288;SDS011;41154;45.394;5.734;2024-03-08T07:26:36;19.75;;;10.93;;
55288;SDS011;41154;45.394;5.734;2024-03-08T07:29:03;27.52;;;13.75;;
55288;SDS011;41154;45.394;5.734;2024-03-08T07:31:29;34.85;;;14.77;;
55288;SDS011;41154;45.394;5.734;2024-03-08T07:34:17;33.60;;;16.00;;
55288;SDS011;41154;45.394;5.734;2024-03-08T07:36:43;33.58;;;15.75;;
55288;SDS011;41154;45.394;5.734;2024-03-08T07:39:09;27.60;;;12.82;;
55288;SDS011;41154;45.394;5.734;2024-03-08T07:41:37;28.17;;;14.20;;
55288;SDS011;41154;45.394;5.734;2024-03-08T07:44:06;17.77;;;9.70;;
55288;SDS011;41154;45.394;5.734;2024-03-08T07:46:32;15.57;;;9.35;;
55288;SDS011;41154;45.394;5.734;2024-03-08T07:48:59;17.95;;;9.57;;
55288;SDS011;41154;45.394;5.734;2024-03-08T07:51:26;18.50;;;10.50;;
55288;SDS011;41154;45.394;5.734;2024-03-08T07:53:52;14.35;;;7.93;;
55288;SDS011;41154;45.394;5.734;2024-03-08T07:56:17;14.45;;;7.65;;
55288;SDS011;41154;45.394;5.734;2024-03-08T07:58:44;16.63;;;9.07;;
55288;SDS011;41154;45.394;5.734;2024-03-08T08:01:19;17.88;;;7.80;;
55288;SDS011;41154;45.394;5.734;2024-03-08T08:06:11;13.40;;;8.27;;
55288;SDS011;41154;45.394;5.734;2024-03-08T08:08:41;17.10;;;8.57;;
55288;SDS011;41154;45.394;5.734;2024-03-08T08:11:08;17.83;;;8.52;;
55288;SDS011;41154;45.394;5.734;2024-03-08T08:13:34;15.80;;;8.95;;
55288;SDS011;41154;45.394;5.734;2024-03-08T08:16:03;17.63;;;8.38;;
55288;SDS011;41154;45.394;5.734;2024-03-08T08:21:05;15.50;;;8.85;;
55288;SDS011;41154;45.394;5.734;2024-03-08T08:23:33;16.75;;;10.05;;
55288;SDS011;41154;45.394;5.734;2024-03-08T08:25:59;19.05;;;10.45;;
55288;SDS011;41154;45.394;5.734;2024-03-08T08:28:28;15.82;;;9.38;;
55288;SDS011;41154;45.394;5.734;2024-03-08T08:30:54;14.18;;;8.75;;
55288;SDS011;41154;45.394;5.734;2024-03-08T08:33:20;16.00;;;9.73;;
55288;SDS011;41154;45.394;5.734;2024-03-08T08:35:46;17.23;;;9.95;;
55288;SDS011;41154;45.394;5.734;2024-03-08T08:38:13;14.52;;;8.13;;
55288;SDS011;41154;45.394;5.734;2024-03-08T08:40:39;12.45;;;7.82;;
55288;SDS011;41154;45.394;5.734;2024-03-08T08:43:04;12.68;;;7.32;;
55288;SDS011;41154;45.394;5.734;2024-03-08T08:45:30;13.75;;;8.00;;
55288;SDS011;41154;45.394;5.734;2024-03-08T08:47:56;11.48;;;6.95;;
55288;SDS011;41154;45.394;5.734;2024-03-08T08:50:25;13.32;;;7.28;;
55288;SDS011;41154;45.394;5.734;2024-03-08T08:52:52;12.63;;;6.97;;
55288;SDS011;41154;45.394;5.734;2024-03-08T08:55:18;12.93;;;7.55;;
55288;SDS011;41154;45.394;5.734;2024-03-08T08:57:46;12.82;;;7.13;;
55288;SDS011;41154;45.394;5.734;2024-03-08T09:00:17;12.95;;;7.15;;
55288;SDS011;41154;45.394;5.734;2024-03-08T09:02:45;10.75;;;7.10;;
55288;SDS011;41154;45.394;5.734;2024-03-08T09:05:11;12.10;;;6.72;;
55288;SDS011;41154;45.394;5.734;2024-03-08T09:07:37;11.20;;;6.97;;
55288;SDS011;41154;45.394;5.734;2024-03-08T09:10:03;14.32;;;8.20;;
55288;SDS011;41154;45.394;5.734;2024-03-08T09:12:30;15.35;;;8.55;;
55288;SDS011;41154;45.394;5.734;2024-03-08T09:14:58;10.20;;;6.68;;
55288;SDS011;41154;45.394;5.734;2024-03-08T09:17:25;13.50;;;7.43;;
55288;SDS011;41154;45.394;5.734;2024-03-08T09:19:50;11.23;;;7.25;;
55288;SDS011;41154;45.394;5.734;2024-03-08T09:24:55;9.60;;;6.82;;
55288;SDS011;41154;45.394;5.734;2024-03-08T09:27:22;15.60;;;6.88;;
55288;SDS011;41154;45.394;5.734;2024-03-08T09:29:49;14.60;;;8.25;;
55288;SDS011;41154;45.394;5.734;2024-03-08T09:32:15;11.85;;;7.43;;
55288;SDS011;41154;45.394;5.734;2024-03-08T09:34:42;10.52;;;6.63;;
55288;SDS011;41154;45.394;5.734;2024-03-08T09:37:08;12.00;;;7.53;;
55288;SDS011;41154;45.394;5.734;2024-03-08T09:39:34;11.50;;;6.97;;
55288;SDS011;41154;45.394;5.734;2024-03-08T09:42:01;11.13;;;6.03;;
55288;SDS011;41154;45.394;5.734;2024-03-08T09:44:27;7.93;;;5.28;;
55288;SDS011;41154;45.394;5.734;2024-03-08T09:46:54;13.27;;;6.07;;
55288;SDS011;41154;45.394;5.734;2024-03-08T09:49:20;9.43;;;5.53;;
55288;SDS011;41154;45.394;5.734;2024-03-08T09:51:46;9.43;;;6.47;;
55288;SDS011;41154;45.394;5.734;2024-03-08T09:54:13;11.65;;;6.90;;
55288;SDS011;41154;45.394;5.734;2024-03-08T09:56:39;10.55;;;6.38;;
55288;SDS011;41154;45.394;5.734;2024-03-08T09:59:09;10.95;;;6.75;;
55288;SDS011;41154;45.394;5.734;2024-03-08T10:02:01;13.50;;;6.70;;
55288;SDS011;41154;45.394;5.734;2024-03-08T10:04:30;9.75;;;6.20;;
55288;SDS011;41154;45.394;5.734;2024-03-08T10:07:03;10.13;;;6.00;;
55288;SDS011;41154;45.394;5.734;2024-03-08T10:09:29;10.13;;;6.68;;
55288;SDS011;41154;45.394;5.734;2024-03-08T10:11:57;11.27;;;6.97;;
55288;SDS011;41154;45.394;5.734;2024-03-08T10:14:26;12.18;;;7.32;;
55288;SDS011;41154;45.394;5.734;2024-03-08T10:16:52;12.45;;;7.25;;
55288;SDS011;41154;45.394;5.734;2024-03-08T10:19:19;10.32;;;7.38;;
55288;SDS011;41154;45.394;5.734;2024-03-08T10:21:51;11.73;;;6.80;;
55288;SDS011;41154;45.394;5.734;2024-03-08T10:24:22;10.75;;;6.38;;
55288;SDS011;41154;45.394;5.734;2024-03-08T10:26:51;12.63;;;6.55;;
55288;SDS011;41154;45.394;5.734;2024-03-08T10:29:32;10.07;;;6.10;;
55288;SDS011;41154;45.394;5.734;2024-03-08T10:31:58;12.23;;;7.57;;
55288;SDS011;41154;45.394;5.734;2024-03-08T10:34:24;11.52;;;7.10;;
55288;SDS011;41154;45.394;5.734;2024-03-08T10:36:51;10.60;;;5.88;;
55288;SDS011;41154;45.394;5.734;2024-03-08T10:39:26;11.70;;;6.53;;
55288;SDS011;41154;45.394;5.734;2024-03-08T10:42:02;11.82;;;6.78;;
55288;SDS011;41154;45.394;5.734;2024-03-08T10:49:49;12.85;;;7.25;;
55288;SDS011;41154;45.394;5.734;2024-03-08T10:52:34;12.55;;;6.80;;
55288;SDS011;41154;45.394;5.734;2024-03-08T10:55:01;10.82;;;5.60;;
55288;SDS011;41154;45.394;5.734;2024-03-08T10:57:27;10.25;;;5.80;;
55288;SDS011;41154;45.394;5.734;2024-03-08T10:59:53;10.60;;;6.35;;
55288;SDS011;41154;45.394;5.734;2024-03-08T11:02:20;10.63;;;6.35;;
55288;SDS011;41154;45.394;5.734;2024-03-08T11:04:51;8.90;;;5.30;;
55288;SDS011;41154;45.394;5.734;2024-03-08T11:07:18;9.60;;;6.10;;
55288;SDS011;41154;45.394;5.734;2024-03-08T11:09:47;13.13;;;6.65;;
55288;SDS011;41154;45.394;5.734;2024-03-08T11:12:20;9.60;;;5.85;;
55288;SDS011;41154;45.394;5.734;2024-03-08T11:15:10;10.07;;;6.20;;
55288;SDS011;41154;45.394;5.734;2024-03-08T11:20:14;9.40;;;5.93;;
55288;SDS011;41154;45.394;5.734;2024-03-08T11:22:52;11.38;;;6.40;;
55288;SDS011;41154;45.394;5.734;2024-03-08T11:25:38;11.52;;;6.47;;
55288;SDS011;41154;45.394;5.734;2024-03-08T11:30:45;11.57;;;6.70;;
55288;SDS011;41154;45.394;5.734;2024-03-08T11:33:31;11.77;;;6.75;;
55288;SDS011;41154;45.394;5.734;2024-03-08T11:36:03;12.25;;;7.38;;
55288;SDS011;41154;45.394;5.734;2024-03-08T11:38:43;11.02;;;7.30;;
55288;SDS011;41154;45.394;5.734;2024-03-08T11:41:16;14.55;;;8.90;;
55288;SDS011;41154;45.394;5.734;2024-03-08T11:43:47;12.18;;;7.88;;
55288;SDS011;41154;45.394;5.734;2024-03-08T11:46:15;13.68;;;8.52;;
55288;SDS011;41154;45.394;5.734;2024-03-08T11:48:43;11.57;;;7.25;;
55288;SDS011;41154;45.394;5.734;2024-03-08T11:51:13;12.57;;;7.10;;
55288;SDS011;41154;45.394;5.734;2024-03-08T11:53:40;11.65;;;7.82;;
55288;SDS011;41154;45.394;5.734;2024-03-08T11:58:33;10.85;;;6.72;;
55288;SDS011;41154;45.394;5.734;2024-03-08T12:01:04;13.55;;;7.00;;
55288;SDS011;41154;45.394;5.734;2024-03-08T12:03:31;14.23;;;7.00;;
55288;SDS011;41154;45.394;5.734;2024-03-08T12:05:59;12.88;;;7.05;;
55288;SDS011;41154;45.394;5.734;2024-03-08T12:08:26;13.93;;;7.90;;
55288;SDS011;41154;45.394;5.734;2024-03-08T12:10:53;10.93;;;6.53;;
55288;SDS011;41154;45.394;5.734;2024-03-08T12:13:28;12.15;;;6.85;;
55288;SDS011;41154;45.394;5.734;2024-03-08T12:15:59;13.32;;;6.90;;
55288;SDS011;41154;45.394;5.734;2024-03-08T12:18:35;11.45;;;7.03;;
55288;SDS011;41154;45.394;5.734;2024-03-08T12:21:06;13.13;;;6.47;;
55288;SDS011;41154;45.394;5.734;2024-03-08T12:23:36;12.07;;;6.82;;
55288;SDS011;41154;45.394;5.734;2024-03-08T12:26:17;11.13;;;6.88;;
55288;SDS011;41154;45.394;5.734;2024-03-08T12:28:48;12.13;;;7.18;;
55288;SDS011;41154;45.394;5.734;2024-03-08T12:31:17;27.90;;;14.13;;
55288;SDS011;41154;45.394;5.734;2024-03-08T12:36:15;15.90;;;8.73;;
55288;SDS011;41154;45.394;5.734;2024-03-08T12:38:45;14.65;;;8.43;;
55288;SDS011;41154;45.394;5.734;2024-03-08T12:41:14;17.67;;;9.18;;
55288;SDS011;41154;45.394;5.734;2024-03-08T12:43:44;12.95;;;7.55;;
55288;SDS011;41154;45.394;5.734;2024-03-08T12:46:19;13.00;;;7.40;;
55288;SDS011;41154;45.394;5.734;2024-03-08T12:48:46;35.15;;;17.90;;
55288;SDS011;41154;45.394;5.734;2024-03-08T12:51:15;20.45;;;8.02;;
55288;SDS011;41154;45.394;5.734;2024-03-08T12:53:43;13.27;;;7.10;;
55288;SDS011;41154;45.394;5.734;2024-03-08T12:56:11;11.90;;;7.05;;
55288;SDS011;41154;45.394;5.734;2024-03-08T12:58:37;13.82;;;7.20;;
55288;SDS011;41154;45.394;5.734;2024-03-08T13:01:04;12.25;;;7.47;;
55288;SDS011;41154;45.394;5.734;2024-03-08T13:03:30;14.52;;;8.90;;
55288;SDS011;41154;45.394;5.734;2024-03-08T13:05:56;13.32;;;8.43;;
55288;SDS011;41154;45.394;5.734;2024-03-08T13:08:23;13.10;;;7.65;;
55288;SDS011;41154;45.394;5.734;2024-03-08T13:11:02;11.90;;;7.40;;
55288;SDS011;41154;45.394;5.734;2024-03-08T13:13:29;13.38;;;7.97;;
55288;SDS011;41154;45.394;5.734;2024-03-08T13:22:22;18.45;;;11.77;;
55288;SDS011;41154;45.394;5.734;2024-03-08T13:24:50;17.90;;;7.80;;
55288;SDS011;41154;45.394;5.734;2024-03-08T13:27:17;16.88;;;9.88;;
55288;SDS011;41154;45.394;5.734;2024-03-08T13:29:50;15.25;;;8.70;;
55288;SDS011;41154;45.394;5.734;2024-03-08T13:32:16;13.60;;;8.05;;
55288;SDS011;41154;45.394;5.734;2024-03-08T13:34:45;12.10;;;7.32;;
55288;SDS011;41154;45.394;5.734;2024-03-08T13:37:10;15.23;;;8.10;;
55288;SDS011;41154;45.394;5.734;2024-03-08T13:39:37;11.30;;;7.10;;
55288;SDS011;41154;45.394;5.734;2024-03-08T13:42:11;13.68;;;7.95;;
55288;SDS011;41154;45.394;5.734;2024-03-08T13:44:44;12.43;;;7.70;;
55288;SDS011;41154;45.394;5.734;2024-03-08T13:47:14;15.52;;;7.45;;
55288;SDS011;41154;45.394;5.734;2024-03-08T13:49:42;10.93;;;6.05;;
55288;SDS011;41154;45.394;5.734;2024-03-08T13:52:09;12.43;;;6.85;;
55288;SDS011;41154;45.394;5.734;2024-03-08T13:54:36;12.30;;;6.75;;
55288;SDS011;41154;45.394;5.734;2024-03-08T13:57:04;11.52;;;7.05;;
55288;SDS011;41154;45.394;5.734;2024-03-08T13:59:31;13.52;;;7.22;;
55288;SDS011;41154;45.394;5.734;2024-03-08T14:02:01;12.82;;;7.00;;
55288;SDS011;41154;45.394;5.734;2024-03-08T14:07:36;14.93;;;8.30;;
55288;SDS011;41154;45.394;5.734;2024-03-08T14:10:02;11.05;;;6.57;;
55288;SDS011;41154;45.394;5.734;2024-03-08T14:12:28;13.98;;;6.72;;
55288;SDS011;41154;45.394;5.734;2024-03-08T14:14:55;13.68;;;7.53;;
55288;SDS011;41154;45.394;5.734;2024-03-08T14:17:25;16.80;;;8.32;;
55288;SDS011;41154;45.394;5.734;2024-03-08T14:19:52;12.77;;;7.70;;
55288;SDS011;41154;45.394;5.734;2024-03-08T14:22:19;11.57;;;6.18;;
55288;SDS011;41154;45.394;5.734;2024-03-08T14:24:46;7.38;;;2.78;;
55288;SDS011;41154;45.394;5.734;2024-03-08T14:27:11;2.63;;;1.83;;
55288;SDS011;41154;45.394;5.734;2024-03-08T14:29:37;9.23;;;5.47;;
55288;SDS011;41154;45.394;5.734;2024-03-08T14:32:04;8.27;;;3.80;;
55288;SDS011;41154;45.394;5.734;2024-03-08T14:34:32;8.70;;;3.50;;
55288;SDS011;41154;45.394;5.734;2024-03-08T14:36:59;5.15;;;2.28;;
55288;SDS011;41154;45.394;5.734;2024-03-08T14:39:26;1.52;;;0.80;;
55288;SDS011;41154;45.394;5.734;2024-03-08T14:41:52;4.43;;;1.33;;
55288;SDS011;41154;45.394;5.734;2024-03-08T14:44:19;0.77;;;0.60;;
55288;SDS011;41154;45.394;5.734;2024-03-08T14:46:45;1.45;;;0.50;;
55288;SDS011;41154;45.394;5.734;2024-03-08T14:49:12;2.55;;;1.33;;
55288;SDS011;41154;45.394;5.734;2024-03-08T14:51:38;5.57;;;3.75;;
55288;SDS011;41154;45.394;5.734;2024-03-08T14:54:03;3.85;;;2.30;;
55288;SDS011;41154;45.394;5.734;2024-03-08T14:56:33;3.90;;;2.08;;
55288;SDS011;41154;45.394;5.734;2024-03-08T14:59:00;10.27;;;5.60;;
55288;SDS011;41154;45.394;5.734;2024-03-08T15:01:26;10.18;;;6.35;;
55288;SDS011;41154;45.394;5.734;2024-03-08T15:03:55;12.63;;;6.65;;
55288;SDS011;41154;45.394;5.734;2024-03-08T15:06:21;11.25;;;6.07;;
55288;SDS011;41154;45.394;5.734;2024-03-08T15:08:49;11.82;;;6.07;;
55288;SDS011;41154;45.394;5.734;2024-03-08T15:11:15;10.80;;;6.45;;
55288;SDS011;41154;45.394;5.734;2024-03-08T15:13:47;12.25;;;6.47;;
55288;SDS011;41154;45.394;5.734;2024-03-08T15:16:16;9.57;;;5.63;;
55288;SDS011;41154;45.394;5.734;2024-03-08T15:18:43;11.90;;;7.00;;
55288;SDS011;41154;45.394;5.734;2024-03-08T15:21:13;17.52;;;11.95;;